(°F)
43°
46°
48°
50°
51°
51°
50°
(°F)
38°
40°
42°
44°
44°
44°
43°
S
SW
SW
WSW
WSW
WSW
WSW
(mph)
2-7
2-9
4-11
5-12
6-13
6-13
5-11
(in)
0
0
0
0
0
0
0
(%)
0
0
0
0
0
0
0

Sun elevation

/ 23.6°
sun-icon
UV 2
06:59
16:41
Waning crescent (282°)
00:07
13:34

METAR for Wilmington Manor (KILG)

Time Conditions Temperature/
Dewpoint
Wind Visibility Weather Clouds Pressure Change Raw
VFR 39.92°F / 32°F 110º 3kt >10km - Scattered Clouds 7000ft 1011 - KILG 281351Z 11003KT 10SM SCT070 04/00 A2987 RMK AO2 SLP114 T00440000 $
VFR 37.94°F / 30.92°F variable 0kt >10km - Broken Clouds 5000ft
Overcast 9500ft
1011 - KILG 281251Z 00000KT 10SM BKN050 OVC095 03/M01 A2988 RMK AO2 SLP118 T00331006 $
VFR 37.04°F / 30.02°F 110º 5kt >10km - Overcast 10000ft 1011 - KILG 281151Z 11005KT 10SM OVC100 03/M01 A2987 RMK AO2 SLP115 T00281011 10028 20022 56020 $
VFR 35.96°F / 30.02°F 130º 5kt >10km - Few Clouds 5500ft
Overcast 9000ft
1012 - KILG 281051Z 13005KT 10SM FEW055 OVC090 02/M01 A2988 RMK AO2 SLP120 T00221011 $
VFR 37.04°F / 30.02°F 140º 8kt >10km - Overcast 6000ft 1012 - KILG 280951Z 14008KT 10SM OVC060 03/M01 A2990 RMK AO2 SLP124 T00281011 $
VFR 37.04°F / 24.98°F variable 0kt >10km - Overcast 5500ft 1013 - KILG 280851Z 00000KT 10SM OVC055 03/M04 A2993 RMK AO2 SLP135 T00281039 56014 $
VFR 37.04°F / 26.06°F variable 0kt >10km - Overcast 7000ft 1013 - KILG 280751Z 00000KT 10SM OVC070 03/M03 A2993 RMK AO2 SLP135 T00281033 $
VFR 35.96°F / 24.08°F variable 0kt >10km - Broken Clouds 6500ft
Overcast 7500ft
1014 - KILG 280651Z 00000KT 10SM BKN065 OVC075 02/M04 A2995 RMK AO2 SLP142 T00221044 $
VFR 37.04°F / 21.92°F variable 0kt >10km - Broken Clouds 5000ft
Overcast 6000ft
1014 - KILG 280551Z 00000KT 10SM BKN050 OVC060 03/M06 A2997 RMK AO2 SLP148 T00281056 10028 20017 56006 $
VFR 37.04°F / 21.92°F variable 0kt >10km - Scattered Clouds 6000ft
Scattered Clouds 7500ft
Overcast 9000ft
1015 - KILG 280451Z 00000KT 10SM SCT060 SCT075 OVC090 03/M06 A2997 RMK AO2 SLP150 T00281056 400560011 $
VFR 37.04°F / 21.02°F 190º 3kt >10km - Overcast 8000ft 1015 - KILG 280351Z 19003KT 10SM OVC080 03/M06 A2998 RMK AO2 SLP151 T00281061 $
VFR 35.96°F / 21.92°F 190º 3kt >10km - Overcast 9500ft 1015 - KILG 280251Z 19003KT 10SM OVC095 02/M06 A2999 RMK AO2 SLP155 T00221056 58002 $
VFR 35.96°F / 21.02°F 200º 3kt >10km - Broken Clouds 9500ft
Broken Clouds 12000ft
1015 - KILG 280151Z 20003KT 10SM BKN095 BKN120 02/M06 A2999 RMK AO2 SLP157 T00221061
VFR 35.96°F / 19.94°F variable 0kt >10km - Clear 1015 - KILG 280051Z 00000KT 10SM CLR 02/M07 A2999 RMK AO2 SLP157 T00221067
VFR 35.06°F / 19.94°F 290º 3kt >10km - Few Clouds 11000ft 1015 - KILG 272351Z 29003KT 10SM FEW110 02/M07 A2999 RMK AO2 SLP157 T00171067 10050 20017 53008
VFR 35.96°F / 19.94°F 300º 7kt >10km - Few Clouds 12000ft 1015 - KILG 272251Z 30007KT 10SM FEW120 02/M07 A2998 RMK AO2 SLP152 T00221067
VFR 35.96°F / 19.04°F 310º 10kt >10km - Clear 1014 - KILG 272151Z 31010KT 10SM CLR 02/M07 A2997 RMK AO2 SLP148 T00221072
VFR 37.94°F / 19.04°F 310º 14kt >10km - Clear 1014 - KILG 272051Z AUTO 31014KT 10SM CLR 03/M07 A2997 RMK AO2 SLP148 T00331072 55000
VFR 37.94°F / 19.04°F 300º 17kt Gust 22kt >10km - Clear 1014 - KILG 271951Z AUTO 30017G22KT 10SM CLR 03/M07 A2996 RMK AO2 SLP146 T00331072
VFR 39.92°F / 19.94°F 300º 13kt Gust 22kt >10km - Few Clouds 4600ft 1015 - KILG 271851Z AUTO 30013G22KT 10SM FEW046 04/M07 A2997 RMK AO2 PK WND 28028/1826 SLP150 T00441067
VFR 41°F / 19.94°F 290º 17kt Gust 22kt >10km - Broken Clouds 4800ft 1014 - KILG 271751Z AUTO 29017G22KT 10SM BKN048 05/M07 A2997 RMK AO2 SLP148 T00501067 10056 20011 58008
VFR 42.08°F / 19.94°F 300º 16kt Gust 22kt >10km - Scattered Clouds 4700ft 1015 - KILG 271651Z AUTO 30016G22KT 10SM SCT047 06/M07 A2998 RMK AO2 SLP153 T00561067
VFR 37.94°F / 17.96°F 300º 17kt Gust 25kt >10km - Broken Clouds 4700ft 1015 - KILG 271551Z AUTO 30017G25KT 10SM BKN047 03/M08 A2999 RMK AO2 PK WND 30028/1503 SLP157 T00331078
VFR 39.02°F / 17.96°F 310º 16kt Gust 20kt >10km - Few Clouds 4700ft 1015 - KILG 271451Z AUTO 31016G20KT 10SM FEW047 04/M08 A2999 RMK AO2 PK WND 30032/1416 SLP157 T00391078 51009

VFR

39.92°F / 32°F

[More]
Wind 110º 3kt
Visibility >10km
Weather -
Clouds Scattered Clouds 7000ft
Pressure 1011
Change -
Raw KILG 281351Z 11003KT 10SM SCT070 04/00 A2987 RMK AO2 SLP114 T00440000 $

VFR

37.94°F / 30.92°F

[More]
Wind variable 0kt
Visibility >10km
Weather -
Clouds Broken Clouds 5000ft
Overcast 9500ft
Pressure 1011
Change -
Raw KILG 281251Z 00000KT 10SM BKN050 OVC095 03/M01 A2988 RMK AO2 SLP118 T00331006 $

VFR

37.04°F / 30.02°F

[More]
Wind 110º 5kt
Visibility >10km
Weather -
Clouds Overcast 10000ft
Pressure 1011
Change -
Raw KILG 281151Z 11005KT 10SM OVC100 03/M01 A2987 RMK AO2 SLP115 T00281011 10028 20022 56020 $

VFR

35.96°F / 30.02°F

[More]
Wind 130º 5kt
Visibility >10km
Weather -
Clouds Few Clouds 5500ft
Overcast 9000ft
Pressure 1012
Change -
Raw KILG 281051Z 13005KT 10SM FEW055 OVC090 02/M01 A2988 RMK AO2 SLP120 T00221011 $

VFR

37.04°F / 30.02°F

[More]
Wind 140º 8kt
Visibility >10km
Weather -
Clouds Overcast 6000ft
Pressure 1012
Change -
Raw KILG 280951Z 14008KT 10SM OVC060 03/M01 A2990 RMK AO2 SLP124 T00281011 $

VFR

37.04°F / 24.98°F

[More]
Wind variable 0kt
Visibility >10km
Weather -
Clouds Overcast 5500ft
Pressure 1013
Change -
Raw KILG 280851Z 00000KT 10SM OVC055 03/M04 A2993 RMK AO2 SLP135 T00281039 56014 $

VFR

37.04°F / 26.06°F

[More]
Wind variable 0kt
Visibility >10km
Weather -
Clouds Overcast 7000ft
Pressure 1013
Change -
Raw KILG 280751Z 00000KT 10SM OVC070 03/M03 A2993 RMK AO2 SLP135 T00281033 $

VFR

35.96°F / 24.08°F

[More]
Wind variable 0kt
Visibility >10km
Weather -
Clouds Broken Clouds 6500ft
Overcast 7500ft
Pressure 1014
Change -
Raw KILG 280651Z 00000KT 10SM BKN065 OVC075 02/M04 A2995 RMK AO2 SLP142 T00221044 $

VFR

37.04°F / 21.92°F

[More]
Wind variable 0kt
Visibility >10km
Weather -
Clouds Broken Clouds 5000ft
Overcast 6000ft
Pressure 1014
Change -
Raw KILG 280551Z 00000KT 10SM BKN050 OVC060 03/M06 A2997 RMK AO2 SLP148 T00281056 10028 20017 56006 $

VFR

37.04°F / 21.92°F

[More]
Wind variable 0kt
Visibility >10km
Weather -
Clouds Scattered Clouds 6000ft
Scattered Clouds 7500ft
Overcast 9000ft
Pressure 1015
Change -
Raw KILG 280451Z 00000KT 10SM SCT060 SCT075 OVC090 03/M06 A2997 RMK AO2 SLP150 T00281056 400560011 $

VFR

37.04°F / 21.02°F

[More]
Wind 190º 3kt
Visibility >10km
Weather -
Clouds Overcast 8000ft
Pressure 1015
Change -
Raw KILG 280351Z 19003KT 10SM OVC080 03/M06 A2998 RMK AO2 SLP151 T00281061 $

VFR

35.96°F / 21.92°F

[More]
Wind 190º 3kt
Visibility >10km
Weather -
Clouds Overcast 9500ft
Pressure 1015
Change -
Raw KILG 280251Z 19003KT 10SM OVC095 02/M06 A2999 RMK AO2 SLP155 T00221056 58002 $

VFR

35.96°F / 21.02°F

[More]
Wind 200º 3kt
Visibility >10km
Weather -
Clouds Broken Clouds 9500ft
Broken Clouds 12000ft
Pressure 1015
Change -
Raw KILG 280151Z 20003KT 10SM BKN095 BKN120 02/M06 A2999 RMK AO2 SLP157 T00221061

VFR

35.96°F / 19.94°F

[More]
Wind variable 0kt
Visibility >10km
Weather -
Clouds Clear
Pressure 1015
Change -
Raw KILG 280051Z 00000KT 10SM CLR 02/M07 A2999 RMK AO2 SLP157 T00221067

VFR

35.06°F / 19.94°F

[More]
Wind 290º 3kt
Visibility >10km
Weather -
Clouds Few Clouds 11000ft
Pressure 1015
Change -
Raw KILG 272351Z 29003KT 10SM FEW110 02/M07 A2999 RMK AO2 SLP157 T00171067 10050 20017 53008

VFR

35.96°F / 19.94°F

[More]
Wind 300º 7kt
Visibility >10km
Weather -
Clouds Few Clouds 12000ft
Pressure 1015
Change -
Raw KILG 272251Z 30007KT 10SM FEW120 02/M07 A2998 RMK AO2 SLP152 T00221067

VFR

35.96°F / 19.04°F

[More]
Wind 310º 10kt
Visibility >10km
Weather -
Clouds Clear
Pressure 1014
Change -
Raw KILG 272151Z 31010KT 10SM CLR 02/M07 A2997 RMK AO2 SLP148 T00221072

VFR

37.94°F / 19.04°F

[More]
Wind 310º 14kt
Visibility >10km
Weather -
Clouds Clear
Pressure 1014
Change -
Raw KILG 272051Z AUTO 31014KT 10SM CLR 03/M07 A2997 RMK AO2 SLP148 T00331072 55000

VFR

37.94°F / 19.04°F

[More]
Wind 300º 17kt Gust 22kt
Visibility >10km
Weather -
Clouds Clear
Pressure 1014
Change -
Raw KILG 271951Z AUTO 30017G22KT 10SM CLR 03/M07 A2996 RMK AO2 SLP146 T00331072

VFR

39.92°F / 19.94°F

[More]
Wind 300º 13kt Gust 22kt
Visibility >10km
Weather -
Clouds Few Clouds 4600ft
Pressure 1015
Change -
Raw KILG 271851Z AUTO 30013G22KT 10SM FEW046 04/M07 A2997 RMK AO2 PK WND 28028/1826 SLP150 T00441067

VFR

41°F / 19.94°F

[More]
Wind 290º 17kt Gust 22kt
Visibility >10km
Weather -
Clouds Broken Clouds 4800ft
Pressure 1014
Change -
Raw KILG 271751Z AUTO 29017G22KT 10SM BKN048 05/M07 A2997 RMK AO2 SLP148 T00501067 10056 20011 58008

VFR

42.08°F / 19.94°F

[More]
Wind 300º 16kt Gust 22kt
Visibility >10km
Weather -
Clouds Scattered Clouds 4700ft
Pressure 1015
Change -
Raw KILG 271651Z AUTO 30016G22KT 10SM SCT047 06/M07 A2998 RMK AO2 SLP153 T00561067

VFR

37.94°F / 17.96°F

[More]
Wind 300º 17kt Gust 25kt
Visibility >10km
Weather -
Clouds Broken Clouds 4700ft
Pressure 1015
Change -
Raw KILG 271551Z AUTO 30017G25KT 10SM BKN047 03/M08 A2999 RMK AO2 PK WND 30028/1503 SLP157 T00331078

VFR

39.02°F / 17.96°F

[More]
Wind 310º 16kt Gust 20kt
Visibility >10km
Weather -
Clouds Few Clouds 4700ft
Pressure 1015
Change -
Raw KILG 271451Z AUTO 31016G20KT 10SM FEW047 04/M08 A2999 RMK AO2 PK WND 30032/1416 SLP157 T00391078 51009

TAF for Wilmington Manor (KILG)

From till


From till Wind variable 3kt. Visibility 10km or more. Overcast 5000ft.
From till Wind 260º 8kt. Visibility 10km or more. Overcast 5000ft.
From till Wind 300º 7kt. Visibility 10km or more. Broken Clouds 25000ft.

Raw: KILG 281120Z 2812/2912 VRB03KT P6SM OVC050 FM281500 26008KT P6SM OVC050 FM290100 30007KT P6SM BKN250

Current satellite images for Wilmington Manor, United States of America

The location marker is placed on Wilmington Manor. [More]

The real-time satellite image combines visible light during daytime with infrared radiation during nighttime. At night, the image is not dark as infrared radiation can detect temperature differences. Unfortunately, low clouds and fog are difficult to distinguish from ground temperatures and thus can be almost invisible during the night. Meteosat satellite images for Europe are updated in real-time every 5 minutes. GOES-16/GOES-17 (North & South America) and Himawari (Asia) images update every 10 minutes.

Radar and precipitation nowcast for Wilmington Manor

Drizzle
Light
Moderate
Heavy
Very Heavy
Hail

The location marker is placed on Wilmington Manor. This animation shows the precipitation radar for the last hour, as well as a 1h forecast. Drizzle or light snow fall might be invisible for the radar. Precipitation intensity is colour coded, ranging from light blue to orange.